Indianapolis, IN (46277)

3:17 AM EST on February 23, 2017 (GMT -0500)
Mile Square | | Change Station

Elev 715 ft 39.77 °N, 86.15 °W | Updated 3 minutes ago

Partly Cloudy
Partly Cloudy
58.6 °F
Feels Like 58.6 °F
N
4.3
Wind Variable Wind from WSW
Gusts 8.1 mph

Today
High -- | Low -- °F
--% Chance of Precip.
Yesterday
High -- | Low -- °F
Precip. -- in
Pressure 29.75 in
Visibility 10.0 miles
Clouds Few 3000 ft
Scattered Clouds 25000 ft
Dew Point 54 °F
Humidity 83%
Rainfall 1.08 in
Snow Depth Not available.
7:26 AM 6:30 PM
Waning Crescent, 12% visible
METAR KIND 230754Z 20007KT 10SM FEW030 SCT250 12/11 A2976 RMK AO2 SLP073 T01220111
Pressure 29.75 in
Visibility 10.0 miles
Clouds Few 3000 ft
Scattered Clouds 25000 ft
Dew Point 54 °F
Humidity 83%
Rainfall 1.08 in
Snow Depth Not available.
7:26 AM 6:30 PM
Waning Crescent, 12% visible
METAR KIND 230754Z 20007KT 10SM FEW030 SCT250 12/11 A2976 RMK AO2 SLP073 T01220111

Get Your Daily Forecast Email!

Thanks for signing up!

Be on the lookout for a verification email in your inbox.

You'll start receiving the daily forecast at 8 AM.

×

10-Day Weather Forecast

Almanac

Astronomy

Feb. 23, 2017 Rise Set
Actual Time
Civil Twilight
Nautical Twilight
Astronomical Twilight
Moon
Length of Visible Light
Length of Day
Tomorrow will be .
, % of the Moon is Illuminated

Today's Extremes

State Highs State Lows

Community

WunderPhotos

Upload Photos

1,962,540 photos uploaded!

WunderBlog® & News

Nearby

Air Quality

  Air Quality AQ Index Pollutant
Not available.

Snow Depth

Station Depth Elevation

Earthquake Activity

City Distance Mag. Time & Date
Minimum magnitude displayed is 2.5.

Coastal Water Temperatures

Place Temperature

Stations

Nearby Weather Stations

Station Location Temp. Windchill Dew Point Humidity Wind Precip. Elev Updated Type
                   

Watches & Warnings

There are currently no watches in effect.